Home > Products > Valid Products > TAF

000
FTUS43 KAPX 310520
TAFPLN
TAF
KPLN 310520Z 3106/0106 00000KT P6SM SCT070
     FM311400 29009KT P6SM BKN070
     FM010000 29005KT P6SM BKN060=



000
FTUS43 KAPX 310520
TAFPLN
TAF
KPLN 310520Z 3106/0106 00000KT P6SM SCT070
     FM311400 29009KT P6SM BKN070
     FM010000 29005KT P6SM BKN060=



000
FTUS43 KAPX 310520
TAFTVC
TAF
KTVC 310520Z 3106/0106 VRB03KT P6SM FEW080
     FM311400 28008KT P6SM BKN070
     FM311700 30010G16KT P6SM BKN070
     FM010000 VRB03KT P6SM SCT070=



000
FTUS43 KAPX 310520
TAFAPN
TAF
KAPN 310520Z 3106/0106 VRB03KT P6SM SKC
     FM311500 27007KT P6SM BKN080
     FM312000 31009G17KT P6SM BKN080
     FM010000 31005KT P6SM SCT060=



000
FTUS43 KAPX 310520
TAFTVC
TAF
KTVC 310520Z 3106/0106 VRB03KT P6SM FEW080
     FM311400 28008KT P6SM BKN070
     FM311700 30010G16KT P6SM BKN070
     FM010000 VRB03KT P6SM SCT070=



000
FTUS43 KAPX 310520
TAFAPN
TAF
KAPN 310520Z 3106/0106 VRB03KT P6SM SKC
     FM311500 27007KT P6SM BKN080
     FM312000 31009G17KT P6SM BKN080
     FM010000 31005KT P6SM SCT060=



000
FTUS43 KAPX 302329
TAFPLN
TAF
KPLN 302329Z 3100/3124 30009KT P6SM SKC
     FM310100 VRB03KT P6SM SKC
     FM311400 29009KT P6SM BKN070=



000
FTUS43 KAPX 302329
TAFAPN
TAF
KAPN 302329Z 3100/3124 28010G19KT P6SM SCT080
     FM310100 27004KT P6SM FEW080
     FM311500 28008KT P6SM BKN080
     FM312000 31008KT P6SM SCT080=



000
FTUS43 KAPX 302329
TAFTVC
TAF
KTVC 302329Z 3100/3124 30007KT P6SM FEW080
     FM310100 VRB03KT P6SM SCT070
     FM311400 28007KT P6SM SCT070
     FM311700 30010KT P6SM SCT070=



000
FTUS43 KAPX 302329
TAFPLN
TAF
KPLN 302329Z 3100/3124 30009KT P6SM SKC
     FM310100 VRB03KT P6SM SKC
     FM311400 29009KT P6SM BKN070=



000
FTUS43 KAPX 302329
TAFTVC
TAF
KTVC 302329Z 3100/3124 30007KT P6SM FEW080
     FM310100 VRB03KT P6SM SCT070
     FM311400 28007KT P6SM SCT070
     FM311700 30010KT P6SM SCT070=



000
FTUS43 KAPX 302329
TAFAPN
TAF
KAPN 302329Z 3100/3124 28010G19KT P6SM SCT080
     FM310100 27004KT P6SM FEW080
     FM311500 28008KT P6SM BKN080
     FM312000 31008KT P6SM SCT080=



000
FTUS43 KAPX 302055 AAA
TAFTVC
TAF AMD
KTVC 302055Z 3021/3118 26016G26KT P6SM FEW050
     FM310100 25008KT P6SM SCT070
     FM310400 VRB03KT P6SM SKC
     FM311400 28007KT P6SM SKC=



000
FTUS43 KAPX 301722
TAFTVC
TAF
KTVC 301722Z 3018/3118 30016G26KT P6SM FEW050
     FM310100 25008KT P6SM SKC
     FM310400 VRB03KT P6SM SKC
     FM311400 28007KT P6SM SKC=



000
FTUS43 KAPX 301722
TAFPLN
TAF
KPLN 301722Z 3018/3118 28012G22KT P6SM SCT045
     FM310100 28008KT P6SM SKC
     FM310400 23003KT P6SM SCT060
     FM311400 28008KT P6SM SCT060=



000
FTUS43 KAPX 301722
TAFAPN
TAF
KAPN 301722Z 3018/3118 30012G22KT P6SM FEW050
     FM310100 26008KT P6SM SKC
     FM310400 22004KT P6SM SCT070
     FM311400 27008KT P6SM SCT070=



000
FTUS43 KAPX 301120
TAFTVC
TAF
KTVC 301120Z 3012/3112 26010G20KT P6SM SKC
     FM301300 27013G25KT P6SM SKC
     FM301900 29013G27KT P6SM SKC
     FM302300 31010G18KT P6SM SKC
     FM310100 25006KT P6SM SKC=



000
FTUS43 KAPX 301120
TAFPLN
TAF
KPLN 301120Z 3012/3112 26012KT P6SM SKC
     FM301300 26015G30KT P6SM SKC
     FM301500 29014G28KT P6SM SCT050
     FM302100 31012G20KT P6SM SKC
     FM310100 25006KT P6SM SKC=



000
FTUS43 KAPX 301120
TAFAPN
TAF
KAPN 301120Z 3012/3112 24006KT P6SM SKC WS010/28025KT
     FM301300 26013G24KT P6SM SKC
     FM301500 27013G25KT P6SM SCT050
     FM302200 29012G23KT P6SM SKC
     FM310100 25008KT P6SM SKC=



000
FTUS43 KAPX 300520
TAFPLN
TAF
KPLN 300520Z 3006/3106 22005KT P6SM OVC080 WS008/27030KT
     FM300800 23006KT P6SM SCT090 WS008/27035KT
     FM301300 26014G26KT P6SM SKC
     FM301800 27014G22KT P6SM BKN035
     FM302100 30012G20KT P6SM BKN035=



000
FTUS43 KAPX 300520
TAFPLN
TAF
KPLN 300520Z 3006/3106 22005KT P6SM OVC080 WS008/27030KT
     FM300800 23006KT P6SM SCT090 WS008/27035KT
     FM301300 26014G26KT P6SM SKC
     FM301800 27014G22KT P6SM BKN035
     FM302100 30012G20KT P6SM BKN035=



000
FTUS43 KAPX 300520
TAFAPN
TAF
KAPN 300520Z 3006/3106 24004KT P6SM SCT090 WS009/30025KT
     FM301300 26012G21KT P6SM SCT040
     FM302000 28012G18KT P6SM BKN040=



000
FTUS43 KAPX 300520
TAFTVC
TAF
KTVC 300520Z 3006/3106 23005KT P6SM SCT090 WS008/28030KT
     FM301300 27013G25KT P6SM SKC
     FM302000 28012G20KT P6SM SCT040
     FM302300 31010G18KT P6SM SCT050=



000
FTUS43 KAPX 300520
TAFTVC
TAF
KTVC 300520Z 3006/3106 23005KT P6SM SCT090 WS008/28030KT
     FM301300 27013G25KT P6SM SKC
     FM302000 28012G20KT P6SM SCT040
     FM302300 31010G18KT P6SM SCT050=



000
FTUS43 KAPX 300520
TAFAPN
TAF
KAPN 300520Z 3006/3106 24004KT P6SM SCT090 WS009/30025KT
     FM301300 26012G21KT P6SM SCT040
     FM302000 28012G18KT P6SM BKN040=



000
FTUS43 KAPX 292333
TAFAPN
TAF
KAPN 292333Z 3000/3024 25011G20KT P6SM SKC
     FM300100 26009KT P6SM SKC WS010/27030KT
     FM301400 27010G18KT P6SM SCT040
     FM302000 28012G18KT P6SM BKN040=



000
FTUS43 KAPX 292333
TAFPLN
TAF
KPLN 292333Z 3000/3024 26011G19KT P6SM SKC
     FM300200 26008KT P6SM SCT070 WS007/26032KT
     FM300400 26008KT P6SM BKN070 WS007/26032KT
     FM301100 27008KT P6SM SCT070 WS011/28030KT
     FM301400 28013G20KT P6SM FEW050
     FM301800 27014G22KT P6SM BKN035
     FM302100 30012G20KT P6SM BKN035=



000
FTUS43 KAPX 292333
TAFTVC
TAF
KTVC 292333Z 3000/3024 25011G18KT P6SM SKC
     FM300100 25007KT P6SM BKN070 WS007/27032KT
     FM300700 25006KT P6SM FEW070 WS008/28030KT
     FM301400 28011G18KT P6SM SKC
     FM302000 28012G20KT P6SM SCT040
     FM302300 31010G18KT P6SM SCT050=



000
FTUS43 KAPX 292007 AAA
TAFPLN
TAF AMD
KPLN 292007Z 2920/3018 25015G27KT P6SM SKC
     FM300000 26011G19KT P6SM SKC
     FM300200 26006KT P6SM SCT050
     FM301400 28013G20KT P6SM SCT050=



000
FTUS43 KAPX 291903 AAB
TAFAPN
TAF AMD
KAPN 291903Z 2919/3018 22011G20KT P6SM SCT035 BKN050
     FM292030 25011G20KT P6SM SKC
     FM300100 26009KT P6SM SKC
     FM301400 27010G18KT P6SM BKN040=



000
FTUS43 KAPX 291842 AAA
TAFAPN
TAF AMD
KAPN 291842Z 2919/3018 22011KT P6SM SCT040 BKN060
     FM292030 25011G19KT P6SM SKC
     FM300100 26009KT P6SM SKC
     FM301400 27010G18KT P6SM BKN040=



000
FTUS43 KAPX 291725
TAFTVC
TAF
KTVC 291725Z 2918/3018 25011G18KT P6SM SKC
     FM300200 25007KT P6SM SKC
     FM301400 28011G18KT P6SM SCT050=



000
FTUS43 KAPX 291725
TAFAPN
TAF
KAPN 291725Z 2918/3018 19011KT P6SM VCSH SCT040 OVC060
      TEMPO 2918/2920 4SM -SHRA BKN025 OVC040
     FM292130 25008G18KT P6SM SKC
     FM300100 26009KT P6SM SKC
     FM301400 27010G18KT P6SM BKN040=



000
FTUS43 KAPX 291725
TAFPLN
TAF
KPLN 291725Z 2918/3018 24011G21KT P6SM OVC040
     FM291820 25013G23KT P6SM SKC
     FM300000 26011G19KT P6SM SKC
     FM300200 26006KT P6SM SCT050
     FM301400 28013G20KT P6SM SCT050=



000
FTUS43 KAPX 291705 AAB
TAFTVC
TAF AMD
KTVC 291705Z 2917/3012 25010KT P6SM BKN040
     FM291730 25011G18KT P6SM SKC
     FM300200 25007KT P6SM SKC=



000
FTUS43 KAPX 291704 AAC
TAFPLN
TAF AMD
KPLN 291704Z 2917/3012 24011G18KT P6SM OVC035
     FM291800 26012G24KT P6SM SKC
     FM300000 26011G19KT P6SM SKC
     FM300200 26006KT P6SM SCT050=



000
FTUS43 KAPX 291704 AAC
TAFPLN
TAF AMD
KPLN 291704Z 2917/3012 24011G18KT P6SM OVC035
     FM291800 26012G24KT P6SM SKC
     FM300000 26011G19KT P6SM SKC
     FM300200 26006KT P6SM SCT050=



000
FTUS43 KAPX 291702 AAC
TAFAPN
TAF AMD
KAPN 291702Z 2917/3012 19011KT P6SM SCT040 OVC060
      TEMPO 2917/2919 4SM -SHRA BKN025 OVC040
     FM292100 25008G16KT P6SM SCT070
     FM292300 26011G20KT P6SM SKC
     FM300100 26009KT P6SM SKC=



000
FTUS43 KAPX 291549 AAB
TAFPLN
TAF AMD
KPLN 291549Z 2916/3012 25009G16KT P6SM BKN019 OVC045
     FM291630 26011G18KT P6SM BKN050
     FM291715 26011G20KT P6SM SCT250
     FM292000 26014G25KT P6SM SKC
     FM300100 26007KT P6SM SKC=



000
FTUS43 KAPX 291549 AAB
TAFPLN
TAF AMD
KPLN 291549Z 2916/3012 25009G16KT P6SM BKN019 OVC045
     FM291630 26011G18KT P6SM BKN050
     FM291715 26011G20KT P6SM SCT250
     FM292000 26014G25KT P6SM SKC
     FM300100 26007KT P6SM SKC=



000
FTUS43 KAPX 291547 AAB
TAFAPN
TAF AMD
KAPN 291547Z 2916/3012 19007KT P6SM SCT040 BKN080
      TEMPO 2917/2919 BKN025
     FM292000 25008G16KT P6SM SCT070
     FM292200 26011G20KT P6SM SKC
     FM300100 26009KT P6SM SKC=



000
FTUS43 KAPX 291547 AAB
TAFAPN
TAF AMD
KAPN 291547Z 2916/3012 19007KT P6SM SCT040 BKN080
      TEMPO 2917/2919 BKN025
     FM292000 25008G16KT P6SM SCT070
     FM292200 26011G20KT P6SM SKC
     FM300100 26009KT P6SM SKC=



000
FTUS43 KAPX 291408 AAA
TAFAPN
TAF AMD
KAPN 291408Z 2914/3012 19005KT P6SM SCT150 BKN250
     FM291600 19007KT P6SM VCSH SCT040 BKN080
      TEMPO 2917/2919 BKN025
     FM292100 25008G16KT P6SM SCT070
     FM292300 26011G20KT P6SM SKC
     FM300100 26009KT P6SM SKC=



000
FTUS43 KAPX 291408 AAA
TAFAPN
TAF AMD
KAPN 291408Z 2914/3012 19005KT P6SM SCT150 BKN250
     FM291600 19007KT P6SM VCSH SCT040 BKN080
      TEMPO 2917/2919 BKN025
     FM292100 25008G16KT P6SM SCT070
     FM292300 26011G20KT P6SM SKC
     FM300100 26009KT P6SM SKC=



000
FTUS43 KAPX 291404 CCA
TAFTVC
TAF COR
KTVC 291404Z 2914/3012 25007KT P6SM SCT040 BKN080
      TEMPO 2914/2916 BKN025
     FM291700 25010G18KT P6SM SCT200
     FM292000 26012G22KT P6SM SKC
     FM300100 26007KT P6SM SKC=



000
FTUS43 KAPX 291404 AAA
TAFPLN
TAF AMD
KPLN 291404Z 2914/3012 21009G16KT P6SM VCSH SCT040 BKN080
     FM291700 26011G20KT P6SM SCT250
     FM292000 26014G25KT P6SM SKC
     FM300100 26007KT P6SM SKC=



000
FTUS43 KAPX 291359 AAA
TAFTVC
TAF AMD
KTVC 291359Z 2914/3012 20007KT P6SM SCT040 BKN080
      TEMPO 2914/2916 BKN025
     FM291700 25010G18KT P6SM SKC
     FM292000 26012G22KT P6SM SKC
     FM300100 26007KT P6SM SKC=



000
FTUS43 KAPX 291359 AAA
TAFTVC
TAF AMD
KTVC 291359Z 2914/3012 20007KT P6SM SCT040 BKN080
      TEMPO 2914/2916 BKN025
     FM291700 25010G18KT P6SM SKC
     FM292000 26012G22KT P6SM SKC
     FM300100 26007KT P6SM SKC=



000
FTUS43 KAPX 291120
TAFAPN
TAF
KAPN 291120Z 2912/3012 19005KT P6SM SCT150 BKN250
     FM291600 19007KT P6SM VCSH SCT040 BKN080
     FM292200 23008KT P6SM SCT070
     FM300100 26005KT P6SM SKC=



000
FTUS43 KAPX 291120
TAFPLN
TAF
KPLN 291120Z 2912/3012 VRB03KT P6SM SCT150 BKN250
     FM291300 19007KT P6SM VCSH SCT040 BKN080
     FM291700 25010KT P6SM SCT070
     FM300100 26007KT P6SM SKC=



000
FTUS43 KAPX 291120
TAFTVC
TAF
KTVC 291120Z 2912/3012 VRB03KT P6SM SCT150 BKN250
     FM291300 20007KT P6SM VCSH SCT040 BKN080
     FM291700 25010KT P6SM SCT070
     FM300100 26007KT P6SM SKC=



000
FTUS43 KAPX 291120
TAFPLN
TAF
KPLN 291120Z 2912/3012 VRB03KT P6SM SCT150 BKN250
     FM291300 19007KT P6SM VCSH SCT040 BKN080
     FM291700 25010KT P6SM SCT070
     FM300100 26007KT P6SM SKC=



000
FTUS43 KAPX 291120
TAFAPN
TAF
KAPN 291120Z 2912/3012 19005KT P6SM SCT150 BKN250
     FM291600 19007KT P6SM VCSH SCT040 BKN080
     FM292200 23008KT P6SM SCT070
     FM300100 26005KT P6SM SKC=



000
FTUS43 KAPX 291120
TAFTVC
TAF
KTVC 291120Z 2912/3012 VRB03KT P6SM SCT150 BKN250
     FM291300 20007KT P6SM VCSH SCT040 BKN080
     FM291700 25010KT P6SM SCT070
     FM300100 26007KT P6SM SKC=



000
FTUS43 KAPX 290520
TAFAPN
TAF
KAPN 290520Z 2906/3006 19005KT P6SM SCT150 BKN250
     FM291600 19007KT P6SM VCSH SCT050 BKN100
     FM292200 23008KT P6SM SCT070
     FM300100 26005KT P6SM SKC=



000
FTUS43 KAPX 290520
TAFTVC
TAF
KTVC 290520Z 2906/3006 VRB03KT P6SM SCT150 BKN250
     FM291200 20007KT P6SM VCSH SCT050 BKN100
     FM291600 25010KT P6SM SCT070
     FM300100 26007KT P6SM SKC=



000
FTUS43 KAPX 290520
TAFPLN
TAF
KPLN 290520Z 2906/3006 VRB03KT P6SM SCT150 BKN250
     FM291200 19007KT P6SM VCSH SCT050 BKN100
     FM291600 25010KT P6SM SCT070
     FM300100 26007KT P6SM SKC=



000
FTUS43 KAPX 282327
TAFPLN
TAF
KPLN 282327Z 2900/2924 VRB04KT P6SM FEW050 BKN200
     FM290700 16004KT P6SM SCT025 BKN050
     FM291100 18007KT 6SM -SHRA BKN035
      TEMPO 2912/2915 4SM -TSRA BKN025CB
     FM291700 23006KT P6SM SCT080
     FM292300 27008KT P6SM SCT120=



000
FTUS43 KAPX 282327
TAFTVC
TAF
KTVC 282327Z 2900/2924 VRB06KT P6SM FEW050 BKN200
     FM290600 16004KT P6SM SCT025 BKN050
     FM291100 18007KT 6SM -SHRA BKN035
      TEMPO 2912/2915 4SM -TSRA BKN025CB
     FM291700 23006KT P6SM SCT080
     FM292300 27008KT P6SM SCT120=



000
FTUS43 KAPX 282327
TAFAPN
TAF
KAPN 282327Z 2900/2924 12006KT P6SM SCT250
     FM290100 17003KT P6SM SCT250
     FM291300 17004KT P6SM SCT050 BKN080
     FM291600 20008KT 5SM -SHRA BKN035
     FM292200 23009KT P6SM SCT040 BKN060=



000
FTUS43 KAPX 281720
TAFAPN
TAF
KAPN 281720Z 2818/2918 12006KT P6SM FEW050 BKN250
     FM290100 17003KT P6SM SCT250
     FM291400 17004KT P6SM SCT050 BKN100 BKN200=



000
FTUS43 KAPX 281720
TAFPLN
TAF
KPLN 281720Z 2818/2918 27006KT P6SM FEW050 BKN200
     FM290100 18003KT P6SM BKN250
     FM291200 17004KT P6SM SCT050 BKN100 BKN200
     FM291700 23006KT P6SM SCT080=



000
FTUS43 KAPX 281720
TAFTVC
TAF
KTVC 281720Z 2818/2918 02006KT P6SM FEW050 BKN250
     FM290100 18003KT P6SM BKN250
     FM291200 17004KT P6SM SCT050 BKN100 BKN200
     FM291700 23006KT P6SM SCT080=



000
FTUS43 KAPX 281507 AAA
TAFAPN
TAF AMD
KAPN 281507Z 2815/2912 00000KT P6SM SKC
     FM281700 12005KT P6SM FEW060 SCT250
     FM290100 VRB03KT P6SM SKC=



000
FTUS43 KAPX 281507 AAA
TAFAPN
TAF AMD
KAPN 281507Z 2815/2912 00000KT P6SM SKC
     FM281700 12005KT P6SM FEW060 SCT250
     FM290100 VRB03KT P6SM SKC=



000
FTUS43 KAPX 281506 AAA
TAFPLN
TAF AMD
KPLN 281506Z 2815/2912 19005KT P6SM SCT250
     FM281700 27006KT P6SM FEW060 BKN250
     FM290100 VRB03KT P6SM SCT250=



000
FTUS43 KAPX 281506 AAA
TAFPLN
TAF AMD
KPLN 281506Z 2815/2912 19005KT P6SM SCT250
     FM281700 27006KT P6SM FEW060 BKN250
     FM290100 VRB03KT P6SM SCT250=



000
FTUS43 KAPX 281504 AAA
TAFTVC
TAF AMD
KTVC 281504Z 2815/2912 00000KT P6SM SCT250
     FM281700 02005KT P6SM FEW060 SCT250
     FM290100 VRB03KT P6SM SCT250=



000
FTUS43 KAPX 281504 AAA
TAFTVC
TAF AMD
KTVC 281504Z 2815/2912 00000KT P6SM SCT250
     FM281700 02005KT P6SM FEW060 SCT250
     FM290100 VRB03KT P6SM SCT250=



    US Dept of Commerce
    National Oceanic and Atmospheric Administration
    National Weather Service
    1325 East West Highway
    Silver Spring, MD 20910
    Page Author: NWS Internet Services Team
Disclaimer
Information Quality
Credits
Glossary
Privacy Policy
Freedom of Information Act (FOIA)
About Us
Career Opportunities